sensor_id;sensor_type;location;lat;lon;timestamp;P1;durP1;ratioP1;P2;durP2;ratioP2
72785;SDS011;60902;53.876;10.674;2023-04-01T00:00:07;7.20;;;4.55;;
72785;SDS011;60902;53.876;10.674;2023-04-01T00:00:19;7.25;;;4.53;;
72785;SDS011;60902;53.876;10.674;2023-04-01T00:00:33;7.40;;;3.97;;
72785;SDS011;60902;53.876;10.674;2023-04-01T00:00:44;8.38;;;4.10;;
72785;SDS011;60902;53.876;10.674;2023-04-01T00:01:00;8.65;;;4.00;;
72785;SDS011;60902;53.876;10.674;2023-04-01T00:01:15;7.93;;;4.40;;
72785;SDS011;60902;53.876;10.674;2023-04-01T00:01:30;7.55;;;4.70;;
72785;SDS011;60902;53.876;10.674;2023-04-01T00:01:40;7.75;;;4.43;;
72785;SDS011;60902;53.876;10.674;2023-04-01T00:01:54;7.32;;;4.18;;
72785;SDS011;60902;53.876;10.674;2023-04-01T00:02:10;7.07;;;4.07;;
72785;SDS011;60902;53.876;10.674;2023-04-01T00:02:46;6.80;;;3.90;;
72785;SDS011;60902;53.876;10.674;2023-04-01T00:03:00;6.68;;;3.85;;
72785;SDS011;60902;53.876;10.674;2023-04-01T00:03:13;7.75;;;4.10;;
72785;SDS011;60902;53.876;10.674;2023-04-01T00:03:25;7.90;;;4.30;;
72785;SDS011;60902;53.876;10.674;2023-04-01T00:03:37;7.43;;;4.43;;
72785;SDS011;60902;53.876;10.674;2023-04-01T00:04:05;6.60;;;4.22;;
72785;SDS011;60902;53.876;10.674;2023-04-01T00:04:27;6.53;;;4.22;;
72785;SDS011;60902;53.876;10.674;2023-04-01T00:04:42;7.10;;;4.60;;
72785;SDS011;60902;53.876;10.674;2023-04-01T00:05:01;7.80;;;4.80;;
72785;SDS011;60902;53.876;10.674;2023-04-01T00:05:13;6.97;;;4.50;;
72785;SDS011;60902;53.876;10.674;2023-04-01T00:05:30;6.65;;;4.30;;
72785;SDS011;60902;53.876;10.674;2023-04-01T00:05:41;6.90;;;4.03;;
72785;SDS011;60902;53.876;10.674;2023-04-01T00:05:52;7.75;;;4.25;;
72785;SDS011;60902;53.876;10.674;2023-04-01T00:06:13;7.97;;;4.25;;
72785;SDS011;60902;53.876;10.674;2023-04-01T00:06:29;7.72;;;4.25;;
72785;SDS011;60902;53.876;10.674;2023-04-01T00:06:39;7.30;;;4.22;;
72785;SDS011;60902;53.876;10.674;2023-04-01T00:06:51;6.65;;;4.32;;
72785;SDS011;60902;53.876;10.674;2023-04-01T00:07:01;6.68;;;3.90;;
72785;SDS011;60902;53.876;10.674;2023-04-01T00:07:18;7.00;;;4.18;;
72785;SDS011;60902;53.876;10.674;2023-04-01T00:07:29;7.20;;;4.30;;
72785;SDS011;60902;53.876;10.674;2023-04-01T00:07:40;7.55;;;4.53;;
72785;SDS011;60902;53.876;10.674;2023-04-01T00:07:51;7.65;;;4.60;;
72785;SDS011;60902;53.876;10.674;2023-04-01T00:08:05;6.95;;;4.43;;
72785;SDS011;60902;53.876;10.674;2023-04-01T00:08:20;6.57;;;4.35;;
72785;SDS011;60902;53.876;10.674;2023-04-01T00:08:37;6.88;;;4.40;;
72785;SDS011;60902;53.876;10.674;2023-04-01T00:08:48;6.60;;;4.03;;
72785;SDS011;60902;53.876;10.674;2023-04-01T00:09:01;6.47;;;4.07;;
72785;SDS011;60902;53.876;10.674;2023-04-01T00:09:14;6.30;;;4.10;;
72785;SDS011;60902;53.876;10.674;2023-04-01T00:09:25;6.85;;;4.60;;
72785;SDS011;60902;53.876;10.674;2023-04-01T00:09:36;6.90;;;4.60;;
72785;SDS011;60902;53.876;10.674;2023-04-01T00:09:53;6.28;;;4.45;;
72785;SDS011;60902;53.876;10.674;2023-04-01T00:10:07;6.35;;;4.22;;
72785;SDS011;60902;53.876;10.674;2023-04-01T00:10:21;6.95;;;4.43;;
72785;SDS011;60902;53.876;10.674;2023-04-01T00:10:34;7.97;;;4.70;;
72785;SDS011;60902;53.876;10.674;2023-04-01T00:10:45;8.68;;;4.65;;
72785;SDS011;60902;53.876;10.674;2023-04-01T00:10:56;7.65;;;4.15;;
72785;SDS011;60902;53.876;10.674;2023-04-01T00:11:07;7.50;;;4.15;;
72785;SDS011;60902;53.876;10.674;2023-04-01T00:11:19;7.05;;;4.25;;
72785;SDS011;60902;53.876;10.674;2023-04-01T00:11:31;7.03;;;4.22;;
72785;SDS011;60902;53.876;10.674;2023-04-01T00:11:44;7.00;;;4.40;;
72785;SDS011;60902;53.876;10.674;2023-04-01T00:11:55;7.40;;;4.70;;
72785;SDS011;60902;53.876;10.674;2023-04-01T00:12:06;6.75;;;4.57;;
72785;SDS011;60902;53.876;10.674;2023-04-01T00:12:19;7.13;;;4.55;;
72785;SDS011;60902;53.876;10.674;2023-04-01T00:12:37;7.18;;;4.45;;
72785;SDS011;60902;53.876;10.674;2023-04-01T00:12:54;6.93;;;4.18;;
72785;SDS011;60902;53.876;10.674;2023-04-01T00:13:06;8.15;;;4.18;;
72785;SDS011;60902;53.876;10.674;2023-04-01T00:13:17;8.75;;;4.25;;
72785;SDS011;60902;53.876;10.674;2023-04-01T00:13:30;8.15;;;4.35;;
72785;SDS011;60902;53.876;10.674;2023-04-01T00:13:41;7.18;;;4.72;;
72785;SDS011;60902;53.876;10.674;2023-04-01T00:13:52;7.90;;;4.82;;
72785;SDS011;60902;53.876;10.674;2023-04-01T00:14:03;8.00;;;4.30;;
72785;SDS011;60902;53.876;10.674;2023-04-01T00:14:17;7.82;;;4.20;;
72785;SDS011;60902;53.876;10.674;2023-04-01T00:14:28;7.32;;;4.13;;
72785;SDS011;60902;53.876;10.674;2023-04-01T00:14:39;6.75;;;4.00;;
72785;SDS011;60902;53.876;10.674;2023-04-01T00:14:50;7.45;;;4.30;;
72785;SDS011;60902;53.876;10.674;2023-04-01T00:15:02;7.55;;;4.28;;
72785;SDS011;60902;53.876;10.674;2023-04-01T00:15:15;7.30;;;4.10;;
72785;SDS011;60902;53.876;10.674;2023-04-01T00:15:26;7.07;;;4.10;;
72785;SDS011;60902;53.876;10.674;2023-04-01T00:15:37;7.25;;;4.30;;
72785;SDS011;60902;53.876;10.674;2023-04-01T00:15:49;7.45;;;4.32;;
72785;SDS011;60902;53.876;10.674;2023-04-01T00:16:00;7.30;;;4.55;;
72785;SDS011;60902;53.876;10.674;2023-04-01T00:16:11;7.28;;;4.70;;
72785;SDS011;60902;53.876;10.674;2023-04-01T00:16:26;6.53;;;4.43;;
72785;SDS011;60902;53.876;10.674;2023-04-01T00:16:44;6.70;;;4.32;;
72785;SDS011;60902;53.876;10.674;2023-04-01T00:16:58;7.93;;;4.93;;
72785;SDS011;60902;53.876;10.674;2023-04-01T00:18:28;7.13;;;4.63;;
72785;SDS011;60902;53.876;10.674;2023-04-01T00:18:57;8.38;;;4.60;;
72785;SDS011;60902;53.876;10.674;2023-04-01T00:19:20;7.38;;;4.85;;
72785;SDS011;60902;53.876;10.674;2023-04-01T00:19:45;7.13;;;5.13;;
72785;SDS011;60902;53.876;10.674;2023-04-01T00:20:00;6.93;;;4.70;;
72785;SDS011;60902;53.876;10.674;2023-04-01T00:20:12;7.18;;;4.47;;
72785;SDS011;60902;53.876;10.674;2023-04-01T00:20:24;6.90;;;4.20;;
72785;SDS011;60902;53.876;10.674;2023-04-01T00:20:35;6.90;;;4.32;;
72785;SDS011;60902;53.876;10.674;2023-04-01T00:20:47;6.90;;;4.38;;
72785;SDS011;60902;53.876;10.674;2023-04-01T00:21:01;7.63;;;4.40;;
72785;SDS011;60902;53.876;10.674;2023-04-01T00:21:13;7.93;;;4.45;;
72785;SDS011;60902;53.876;10.674;2023-04-01T00:21:24;8.10;;;4.50;;
72785;SDS011;60902;53.876;10.674;2023-04-01T00:21:42;6.53;;;4.30;;
72785;SDS011;60902;53.876;10.674;2023-04-01T00:21:53;7.07;;;4.78;;
72785;SDS011;60902;53.876;10.674;2023-04-01T00:22:04;7.78;;;5.00;;
72785;SDS011;60902;53.876;10.674;2023-04-01T00:22:16;7.78;;;4.97;;
72785;SDS011;60902;53.876;10.674;2023-04-01T00:22:27;7.13;;;4.63;;
72785;SDS011;60902;53.876;10.674;2023-04-01T00:22:40;7.45;;;4.78;;
72785;SDS011;60902;53.876;10.674;2023-04-01T00:22:52;8.57;;;5.00;;
72785;SDS011;60902;53.876;10.674;2023-04-01T00:23:02;8.38;;;4.90;;
72785;SDS011;60902;53.876;10.674;2023-04-01T00:23:15;8.23;;;4.50;;
72785;SDS011;60902;53.876;10.674;2023-04-01T00:23:32;7.75;;;4.18;;
72785;SDS011;60902;53.876;10.674;2023-04-01T00:23:43;7.90;;;4.38;;
72785;SDS011;60902;53.876;10.674;2023-04-01T00:23:56;7.10;;;4.47;;
72785;SDS011;60902;53.876;10.674;2023-04-01T00:24:07;7.22;;;4.63;;
72785;SDS011;60902;53.876;10.674;2023-04-01T00:24:26;6.80;;;4.70;;
72785;SDS011;60902;53.876;10.674;2023-04-01T00:24:41;7.20;;;4.78;;
72785;SDS011;60902;53.876;10.674;2023-04-01T00:24:52;9.00;;;5.03;;
72785;SDS011;60902;53.876;10.674;2023-04-01T00:25:04;8.93;;;5.00;;
72785;SDS011;60902;53.876;10.674;2023-04-01T00:25:19;8.63;;;4.95;;
72785;SDS011;60902;53.876;10.674;2023-04-01T00:25:30;8.27;;;4.88;;
72785;SDS011;60902;53.876;10.674;2023-04-01T00:25:41;8.35;;;4.97;;
72785;SDS011;60902;53.876;10.674;2023-04-01T00:25:52;7.83;;;4.87;;
72785;SDS011;60902;53.876;10.674;2023-04-01T00:26:03;8.02;;;4.80;;
72785;SDS011;60902;53.876;10.674;2023-04-01T00:26:15;7.97;;;4.95;;
72785;SDS011;60902;53.876;10.674;2023-04-01T00:26:29;7.57;;;4.93;;
72785;SDS011;60902;53.876;10.674;2023-04-01T00:26:40;8.05;;;4.72;;
72785;SDS011;60902;53.876;10.674;2023-04-01T00:26:52;8.90;;;4.90;;
72785;SDS011;60902;53.876;10.674;2023-04-01T00:27:03;9.00;;;4.90;;
72785;SDS011;60902;53.876;10.674;2023-04-01T00:27:14;7.50;;;4.90;;
72785;SDS011;60902;53.876;10.674;2023-04-01T00:27:28;7.90;;;4.85;;
72785;SDS011;60902;53.876;10.674;2023-04-01T00:27:40;7.95;;;4.70;;
72785;SDS011;60902;53.876;10.674;2023-04-01T00:27:51;7.68;;;4.40;;
72785;SDS011;60902;53.876;10.674;2023-04-01T00:28:02;7.35;;;4.88;;
72785;SDS011;60902;53.876;10.674;2023-04-01T00:28:13;7.63;;;5.13;;
72785;SDS011;60902;53.876;10.674;2023-04-01T00:28:24;7.88;;;5.53;;
72785;SDS011;60902;53.876;10.674;2023-04-01T00:28:36;8.70;;;5.40;;
72785;SDS011;60902;53.876;10.674;2023-04-01T00:28:54;8.93;;;5.00;;
72785;SDS011;60902;53.876;10.674;2023-04-01T00:29:10;8.45;;;5.13;;
72785;SDS011;60902;53.876;10.674;2023-04-01T00:29:21;8.18;;;5.22;;
72785;SDS011;60902;53.876;10.674;2023-04-01T00:29:36;7.97;;;5.20;;
72785;SDS011;60902;53.876;10.674;2023-04-01T00:29:47;8.07;;;5.30;;
72785;SDS011;60902;53.876;10.674;2023-04-01T00:29:58;8.15;;;5.22;;
72785;SDS011;60902;53.876;10.674;2023-04-01T00:30:10;8.40;;;5.20;;
72785;SDS011;60902;53.876;10.674;2023-04-01T00:30:22;8.55;;;4.90;;
72785;SDS011;60902;53.876;10.674;2023-04-01T00:30:35;7.45;;;4.68;;
72785;SDS011;60902;53.876;10.674;2023-04-01T00:30:49;7.78;;;5.00;;
72785;SDS011;60902;53.876;10.674;2023-04-01T00:31:04;7.65;;;5.10;;
72785;SDS011;60902;53.876;10.674;2023-04-01T00:31:16;7.78;;;5.10;;
72785;SDS011;60902;53.876;10.674;2023-04-01T00:31:30;8.60;;;5.03;;
72785;SDS011;60902;53.876;10.674;2023-04-01T00:31:41;8.75;;;5.07;;
72785;SDS011;60902;53.876;10.674;2023-04-01T00:31:53;7.70;;;5.03;;
72785;SDS011;60902;53.876;10.674;2023-04-01T00:32:05;7.35;;;4.82;;
72785;SDS011;60902;53.876;10.674;2023-04-01T00:32:15;7.28;;;5.18;;
72785;SDS011;60902;53.876;10.674;2023-04-01T00:32:29;7.13;;;4.78;;
72785;SDS011;60902;53.876;10.674;2023-04-01T00:32:47;7.40;;;4.95;;
72785;SDS011;60902;53.876;10.674;2023-04-01T00:33:04;8.30;;;5.10;;
72785;SDS011;60902;53.876;10.674;2023-04-01T00:33:15;8.45;;;4.90;;
72785;SDS011;60902;53.876;10.674;2023-04-01T00:33:27;7.85;;;4.70;;
72785;SDS011;60902;53.876;10.674;2023-04-01T00:33:38;7.73;;;4.93;;
72785;SDS011;60902;53.876;10.674;2023-04-01T00:33:50;7.78;;;5.38;;
72785;SDS011;60902;53.876;10.674;2023-04-01T00:34:07;8.57;;;5.40;;
72785;SDS011;60902;53.876;10.674;2023-04-01T00:34:18;8.18;;;5.00;;
72785;SDS011;60902;53.876;10.674;2023-04-01T00:34:30;7.82;;;5.03;;
72785;SDS011;60902;53.876;10.674;2023-04-01T00:34:41;7.65;;;5.22;;
72785;SDS011;60902;53.876;10.674;2023-04-01T00:34:52;8.27;;;5.47;;
72785;SDS011;60902;53.876;10.674;2023-04-01T00:35:03;8.18;;;5.40;;
72785;SDS011;60902;53.876;10.674;2023-04-01T00:35:16;8.13;;;5.50;;
72785;SDS011;60902;53.876;10.674;2023-04-01T00:35:27;7.78;;;5.55;;
72785;SDS011;60902;53.876;10.674;2023-04-01T00:35:38;8.45;;;5.60;;
72785;SDS011;60902;53.876;10.674;2023-04-01T00:35:50;8.35;;;5.25;;
72785;SDS011;60902;53.876;10.674;2023-04-01T00:36:14;8.27;;;5.10;;
72785;SDS011;60902;53.876;10.674;2023-04-01T00:36:27;8.32;;;5.00;;
72785;SDS011;60902;53.876;10.674;2023-04-01T00:36:38;7.78;;;4.85;;
72785;SDS011;60902;53.876;10.674;2023-04-01T00:36:49;7.10;;;4.70;;
72785;SDS011;60902;53.876;10.674;2023-04-01T00:37:03;7.75;;;5.03;;
72785;SDS011;60902;53.876;10.674;2023-04-01T00:37:14;7.90;;;5.20;;
72785;SDS011;60902;53.876;10.674;2023-04-01T00:37:25;8.00;;;5.32;;
72785;SDS011;60902;53.876;10.674;2023-04-01T00:37:36;7.87;;;5.40;;
72785;SDS011;60902;53.876;10.674;2023-04-01T00:37:52;8.63;;;5.47;;
72785;SDS011;60902;53.876;10.674;2023-04-01T00:38:03;8.50;;;5.13;;
72785;SDS011;60902;53.876;10.674;2023-04-01T00:38:14;8.85;;;5.30;;
72785;SDS011;60902;53.876;10.674;2023-04-01T00:38:26;8.88;;;5.15;;
72785;SDS011;60902;53.876;10.674;2023-04-01T00:38:37;8.82;;;5.25;;
72785;SDS011;60902;53.876;10.674;2023-04-01T00:38:48;8.57;;;5.28;;
72785;SDS011;60902;53.876;10.674;2023-04-01T00:39:00;8.55;;;5.40;;
72785;SDS011;60902;53.876;10.674;2023-04-01T00:39:11;7.80;;;5.35;;
72785;SDS011;60902;53.876;10.674;2023-04-01T00:39:24;7.78;;;5.22;;
72785;SDS011;60902;53.876;10.674;2023-04-01T00:39:38;7.70;;;5.17;;
72785;SDS011;60902;53.876;10.674;2023-04-01T00:39:49;7.50;;;5.00;;
72785;SDS011;60902;53.876;10.674;2023-04-01T00:40:00;7.60;;;4.65;;
72785;SDS011;60902;53.876;10.674;2023-04-01T00:40:20;7.72;;;4.88;;
72785;SDS011;60902;53.876;10.674;2023-04-01T00:40:36;7.38;;;5.10;;
72785;SDS011;60902;53.876;10.674;2023-04-01T00:40:48;8.07;;;5.40;;
72785;SDS011;60902;53.876;10.674;2023-04-01T00:40:59;8.30;;;5.47;;
72785;SDS011;60902;53.876;10.674;2023-04-01T00:41:11;8.40;;;5.45;;
72785;SDS011;60902;53.876;10.674;2023-04-01T00:41:24;7.67;;;5.37;;
72785;SDS011;60902;53.876;10.674;2023-04-01T00:41:36;8.30;;;5.20;;
72785;SDS011;60902;53.876;10.674;2023-04-01T00:41:48;7.95;;;4.97;;
72785;SDS011;60902;53.876;10.674;2023-04-01T00:41:59;7.80;;;5.00;;
72785;SDS011;60902;53.876;10.674;2023-04-01T00:42:11;8.00;;;5.28;;
72785;SDS011;60902;53.876;10.674;2023-04-01T00:42:23;8.60;;;5.40;;
72785;SDS011;60902;53.876;10.674;2023-04-01T00:42:35;8.10;;;5.18;;
72785;SDS011;60902;53.876;10.674;2023-04-01T00:42:46;7.75;;;4.88;;
72785;SDS011;60902;53.876;10.674;2023-04-01T00:42:57;8.10;;;5.10;;
72785;SDS011;60902;53.876;10.674;2023-04-01T00:43:10;8.38;;;5.22;;
72785;SDS011;60902;53.876;10.674;2023-04-01T00:43:23;8.52;;;5.40;;
72785;SDS011;60902;53.876;10.674;2023-04-01T00:43:34;8.35;;;5.22;;
72785;SDS011;60902;53.876;10.674;2023-04-01T00:43:47;8.50;;;5.22;;
72785;SDS011;60902;53.876;10.674;2023-04-01T00:44:12;8.70;;;5.45;;
72785;SDS011;60902;53.876;10.674;2023-04-01T00:44:26;8.90;;;6.07;;
72785;SDS011;60902;53.876;10.674;2023-04-01T00:44:39;9.70;;;5.40;;
72785;SDS011;60902;53.876;10.674;2023-04-01T00:44:52;10.68;;;5.78;;
72785;SDS011;60902;53.876;10.674;2023-04-01T00:45:43;8.32;;;5.60;;
72785;SDS011;60902;53.876;10.674;2023-04-01T00:45:55;8.15;;;5.40;;
72785;SDS011;60902;53.876;10.674;2023-04-01T00:46:07;7.95;;;5.25;;
72785;SDS011;60902;53.876;10.674;2023-04-01T00:46:18;7.82;;;5.38;;
72785;SDS011;60902;53.876;10.674;2023-04-01T00:46:29;8.75;;;5.35;;
72785;SDS011;60902;53.876;10.674;2023-04-01T00:46:40;8.90;;;5.60;;
72785;SDS011;60902;53.876;10.674;2023-04-01T00:46:51;9.30;;;5.90;;
72785;SDS011;60902;53.876;10.674;2023-04-01T00:47:02;8.77;;;6.07;;
72785;SDS011;60902;53.876;10.674;2023-04-01T00:47:14;9.52;;;6.05;;
72785;SDS011;60902;53.876;10.674;2023-04-01T00:47:25;9.15;;;6.00;;
72785;SDS011;60902;53.876;10.674;2023-04-01T00:47:37;9.30;;;5.97;;
72785;SDS011;60902;53.876;10.674;2023-04-01T00:47:48;8.93;;;5.72;;
72785;SDS011;60902;53.876;10.674;2023-04-01T00:48:02;9.70;;;6.05;;
72785;SDS011;60902;53.876;10.674;2023-04-01T00:48:16;8.52;;;5.55;;
72785;SDS011;60902;53.876;10.674;2023-04-01T00:48:31;8.18;;;5.35;;
72785;SDS011;60902;53.876;10.674;2023-04-01T00:48:45;8.75;;;5.78;;
72785;SDS011;60902;53.876;10.674;2023-04-01T00:48:58;9.07;;;5.70;;
72785;SDS011;60902;53.876;10.674;2023-04-01T00:49:10;8.85;;;5.43;;
72785;SDS011;60902;53.876;10.674;2023-04-01T00:49:24;8.60;;;5.20;;
72785;SDS011;60902;53.876;10.674;2023-04-01T00:49:40;8.77;;;5.40;;
72785;SDS011;60902;53.876;10.674;2023-04-01T00:49:55;8.02;;;5.57;;
72785;SDS011;60902;53.876;10.674;2023-04-01T00:50:06;8.77;;;5.40;;
72785;SDS011;60902;53.876;10.674;2023-04-01T00:50:18;9.35;;;5.60;;
72785;SDS011;60902;53.876;10.674;2023-04-01T00:50:29;9.85;;;5.72;;
72785;SDS011;60902;53.876;10.674;2023-04-01T00:50:43;8.70;;;5.60;;
72785;SDS011;60902;53.876;10.674;2023-04-01T00:51:01;8.07;;;5.50;;
72785;SDS011;60902;53.876;10.674;2023-04-01T00:51:16;8.30;;;5.72;;
72785;SDS011;60902;53.876;10.674;2023-04-01T00:51:28;8.77;;;5.95;;
72785;SDS011;60902;53.876;10.674;2023-04-01T00:51:41;9.30;;;6.28;;
72785;SDS011;60902;53.876;10.674;2023-04-01T00:51:53;9.10;;;6.13;;
72785;SDS011;60902;53.876;10.674;2023-04-01T00:52:06;8.77;;;6.10;;
72785;SDS011;60902;53.876;10.674;2023-04-01T00:52:22;8.80;;;5.97;;
72785;SDS011;60902;53.876;10.674;2023-04-01T00:52:36;8.60;;;5.75;;
72785;SDS011;60902;53.876;10.674;2023-04-01T00:52:47;8.60;;;5.80;;
72785;SDS011;60902;53.876;10.674;2023-04-01T00:52:58;9.20;;;6.20;;
72785;SDS011;60902;53.876;10.674;2023-04-01T00:53:11;9.05;;;6.20;;
72785;SDS011;60902;53.876;10.674;2023-04-01T00:53:22;9.45;;;6.40;;
72785;SDS011;60902;53.876;10.674;2023-04-01T00:53:34;8.65;;;5.80;;
72785;SDS011;60902;53.876;10.674;2023-04-01T00:53:49;8.23;;;5.65;;
72785;SDS011;60902;53.876;10.674;2023-04-01T00:54:04;7.90;;;5.65;;
72785;SDS011;60902;53.876;10.674;2023-04-01T00:54:18;7.88;;;5.78;;
72785;SDS011;60902;53.876;10.674;2023-04-01T00:54:32;8.30;;;5.72;;
72785;SDS011;60902;53.876;10.674;2023-04-01T00:54:45;9.18;;;5.63;;
72785;SDS011;60902;53.876;10.674;2023-04-01T00:54:59;9.18;;;5.45;;
72785;SDS011;60902;53.876;10.674;2023-04-01T00:55:13;9.38;;;5.45;;
72785;SDS011;60902;53.876;10.674;2023-04-01T00:55:30;9.73;;;5.57;;
72785;SDS011;60902;53.876;10.674;2023-04-01T00:55:43;9.05;;;5.80;;
72785;SDS011;60902;53.876;10.674;2023-04-01T00:56:03;9.00;;;6.07;;
72785;SDS011;60902;53.876;10.674;2023-04-01T00:56:18;8.63;;;6.00;;
72785;SDS011;60902;53.876;10.674;2023-04-01T00:56:33;8.98;;;5.88;;
72785;SDS011;60902;53.876;10.674;2023-04-01T00:56:48;8.75;;;6.03;;
72785;SDS011;60902;53.876;10.674;2023-04-01T00:57:01;8.63;;;6.07;;
72785;SDS011;60902;53.876;10.674;2023-04-01T00:57:16;8.95;;;5.95;;
72785;SDS011;60902;53.876;10.674;2023-04-01T00:57:32;8.80;;;6.07;;
72785;SDS011;60902;53.876;10.674;2023-04-01T00:57:46;8.20;;;5.95;;
72785;SDS011;60902;53.876;10.674;2023-04-01T00:58:01;8.05;;;5.82;;
72785;SDS011;60902;53.876;10.674;2023-04-01T00:58:16;8.90;;;5.95;;
72785;SDS011;60902;53.876;10.674;2023-04-01T00:58:31;8.73;;;6.05;;
72785;SDS011;60902;53.876;10.674;2023-04-01T00:58:46;8.23;;;5.97;;
72785;SDS011;60902;53.876;10.674;2023-04-01T00:59:05;8.80;;;6.00;;
72785;SDS011;60902;53.876;10.674;2023-04-01T00:59:22;9.15;;;6.13;;
72785;SDS011;60902;53.876;10.674;2023-04-01T00:59:35;8.80;;;6.00;;
72785;SDS011;60902;53.876;10.674;2023-04-01T00:59:51;8.73;;;5.60;;
72785;SDS011;60902;53.876;10.674;2023-04-01T01:00:05;8.57;;;5.78;;
72785;SDS011;60902;53.876;10.674;2023-04-01T01:00:19;8.00;;;5.43;;
72785;SDS011;60902;53.876;10.674;2023-04-01T01:00:31;8.48;;;5.68;;
72785;SDS011;60902;53.876;10.674;2023-04-01T01:00:47;8.75;;;5.70;;
72785;SDS011;60902;53.876;10.674;2023-04-01T01:01:00;8.73;;;5.55;;
72785;SDS011;60902;53.876;10.674;2023-04-01T01:01:11;8.85;;;5.40;;
72785;SDS011;60902;53.876;10.674;2023-04-01T01:01:22;8.95;;;5.60;;
72785;SDS011;60902;53.876;10.674;2023-04-01T01:01:35;8.90;;;5.68;;
72785;SDS011;60902;53.876;10.674;2023-04-01T01:01:46;9.77;;;5.85;;
72785;SDS011;60902;53.876;10.674;2023-04-01T01:01:58;10.27;;;6.10;;
72785;SDS011;60902;53.876;10.674;2023-04-01T01:02:11;9.77;;;6.10;;
72785;SDS011;60902;53.876;10.674;2023-04-01T01:02:23;9.50;;;6.05;;
72785;SDS011;60902;53.876;10.674;2023-04-01T01:02:34;8.63;;;5.80;;
72785;SDS011;60902;53.876;10.674;2023-04-01T01:02:46;8.63;;;5.72;;
72785;SDS011;60902;53.876;10.674;2023-04-01T01:02:58;8.40;;;6.00;;
72785;SDS011;60902;53.876;10.674;2023-04-01T01:03:09;8.43;;;5.90;;
72785;SDS011;60902;53.876;10.674;2023-04-01T01:03:20;8.10;;;5.63;;
72785;SDS011;60902;53.876;10.674;2023-04-01T01:03:31;8.27;;;5.53;;
72785;SDS011;60902;53.876;10.674;2023-04-01T01:03:44;8.77;;;5.88;;
72785;SDS011;60902;53.876;10.674;2023-04-01T01:03:55;9.07;;;6.13;;
72785;SDS011;60902;53.876;10.674;2023-04-01T01:04:06;9.15;;;6.40;;
72785;SDS011;60902;53.876;10.674;2023-04-01T01:04:24;9.05;;;6.28;;
72785;SDS011;60902;53.876;10.674;2023-04-01T01:04:37;9.35;;;6.10;;
72785;SDS011;60902;53.876;10.674;2023-04-01T01:04:48;8.82;;;6.03;;
72785;SDS011;60902;53.876;10.674;2023-04-01T01:04:59;8.55;;;5.80;;
72785;SDS011;60902;53.876;10.674;2023-04-01T01:05:11;9.70;;;5.78;;
72785;SDS011;60902;53.876;10.674;2023-04-01T01:05:28;10.18;;;5.90;;
72785;SDS011;60902;53.876;10.674;2023-04-01T01:05:54;9.60;;;5.90;;
72785;SDS011;60902;53.876;10.674;2023-04-01T01:06:21;8.52;;;6.03;;
72785;SDS011;60902;53.876;10.674;2023-04-01T01:06:39;8.75;;;5.80;;
72785;SDS011;60902;53.876;10.674;2023-04-01T01:07:00;9.02;;;5.68;;
72785;SDS011;60902;53.876;10.674;2023-04-01T01:07:24;8.25;;;5.60;;
72785;SDS011;60902;53.876;10.674;2023-04-01T01:07:42;7.90;;;5.70;;
72785;SDS011;60902;53.876;10.674;2023-04-01T01:08:03;8.63;;;5.93;;
72785;SDS011;60902;53.876;10.674;2023-04-01T01:08:25;10.27;;;6.35;;
72785;SDS011;60902;53.876;10.674;2023-04-01T01:09:03;9.23;;;6.10;;
72785;SDS011;60902;53.876;10.674;2023-04-01T01:09:26;8.53;;;5.83;;
72785;SDS011;60902;53.876;10.674;2023-04-01T01:09:47;8.35;;;6.13;;
72785;SDS011;60902;53.876;10.674;2023-04-01T01:10:07;8.80;;;6.45;;
72785;SDS011;60902;53.876;10.674;2023-04-01T01:10:29;8.13;;;5.88;;
72785;SDS011;60902;53.876;10.674;2023-04-01T01:10:42;9.15;;;6.45;;
72785;SDS011;60902;53.876;10.674;2023-04-01T01:10:59;9.32;;;6.68;;
72785;SDS011;60902;53.876;10.674;2023-04-01T01:11:10;8.55;;;6.32;;
72785;SDS011;60902;53.876;10.674;2023-04-01T01:11:25;10.27;;;6.65;;
72785;SDS011;60902;53.876;10.674;2023-04-01T01:11:45;10.48;;;6.32;;
72785;SDS011;60902;53.876;10.674;2023-04-01T01:12:05;8.95;;;6.00;;
72785;SDS011;60902;53.876;10.674;2023-04-01T01:12:20;9.00;;;6.18;;
72785;SDS011;60902;53.876;10.674;2023-04-01T01:12:36;8.68;;;6.28;;
72785;SDS011;60902;53.876;10.674;2023-04-01T01:12:51;8.25;;;6.10;;
72785;SDS011;60902;53.876;10.674;2023-04-01T01:13:10;9.03;;;5.80;;
72785;SDS011;60902;53.876;10.674;2023-04-01T01:13:26;8.95;;;5.78;;
72785;SDS011;60902;53.876;10.674;2023-04-01T01:13:47;9.57;;;6.18;;
72785;SDS011;60902;53.876;10.674;2023-04-01T01:14:03;9.20;;;6.28;;
72785;SDS011;60902;53.876;10.674;2023-04-01T01:14:29;8.88;;;6.82;;
72785;SDS011;60902;53.876;10.674;2023-04-01T01:14:52;9.93;;;6.90;;
72785;SDS011;60902;53.876;10.674;2023-04-01T01:15:14;8.48;;;5.78;;
72785;SDS011;60902;53.876;10.674;2023-04-01T01:15:30;8.77;;;6.25;;
72785;SDS011;60902;53.876;10.674;2023-04-01T01:15:46;9.57;;;6.25;;
72785;SDS011;60902;53.876;10.674;2023-04-01T01:16:02;9.40;;;5.95;;
72785;SDS011;60902;53.876;10.674;2023-04-01T01:16:18;9.00;;;6.00;;
72785;SDS011;60902;53.876;10.674;2023-04-01T01:16:34;8.77;;;6.22;;
72785;SDS011;60902;53.876;10.674;2023-04-01T01:16:52;8.73;;;6.07;;
72785;SDS011;60902;53.876;10.674;2023-04-01T01:17:12;8.65;;;5.97;;
72785;SDS011;60902;53.876;10.674;2023-04-01T01:17:32;8.90;;;6.30;;
72785;SDS011;60902;53.876;10.674;2023-04-01T01:17:53;9.48;;;6.10;;
72785;SDS011;60902;53.876;10.674;2023-04-01T01:18:10;9.15;;;6.07;;
72785;SDS011;60902;53.876;10.674;2023-04-01T01:18:32;9.10;;;6.30;;
72785;SDS011;60902;53.876;10.674;2023-04-01T01:18:48;9.18;;;6.00;;
72785;SDS011;60902;53.876;10.674;2023-04-01T01:19:11;9.27;;;6.20;;
72785;SDS011;60902;53.876;10.674;2023-04-01T01:19:57;8.90;;;6.20;;
72785;SDS011;60902;53.876;10.674;2023-04-01T01:20:35;8.95;;;6.32;;
72785;SDS011;60902;53.876;10.674;2023-04-01T01:21:57;8.90;;;6.40;;
72785;SDS011;60902;53.876;10.674;2023-04-01T01:22:35;10.38;;;6.60;;
72785;SDS011;60902;53.876;10.674;2023-04-01T01:23:06;9.65;;;6.40;;
72785;SDS011;60902;53.876;10.674;2023-04-01T01:25:11;8.75;;;6.88;;
72785;SDS011;60902;53.876;10.674;2023-04-01T01:25:39;10.05;;;6.78;;
72785;SDS011;60902;53.876;10.674;2023-04-01T01:26:04;9.98;;;6.20;;
72785;SDS011;60902;53.876;10.674;2023-04-01T01:26:46;8.60;;;6.25;;
72785;SDS011;60902;53.876;10.674;2023-04-01T01:27:13;9.07;;;6.10;;
72785;SDS011;60902;53.876;10.674;2023-04-01T01:27:28;8.82;;;6.03;;
72785;SDS011;60902;53.876;10.674;2023-04-01T01:27:41;10.00;;;6.35;;
72785;SDS011;60902;53.876;10.674;2023-04-01T01:28:01;10.10;;;6.53;;
72785;SDS011;60902;53.876;10.674;2023-04-01T01:28:27;9.82;;;6.65;;
72785;SDS011;60902;53.876;10.674;2023-04-01T01:28:51;9.20;;;6.95;;
72785;SDS011;60902;53.876;10.674;2023-04-01T01:29:13;10.67;;;6.80;;
72785;SDS011;60902;53.876;10.674;2023-04-01T01:29:57;8.50;;;6.18;;
72785;SDS011;60902;53.876;10.674;2023-04-01T01:30:55;9.57;;;6.63;;
72785;SDS011;60902;53.876;10.674;2023-04-01T01:31:12;9.73;;;6.85;;
72785;SDS011;60902;53.876;10.674;2023-04-01T01:31:30;8.95;;;6.63;;
72785;SDS011;60902;53.876;10.674;2023-04-01T01:31:49;9.00;;;6.88;;
72785;SDS011;60902;53.876;10.674;2023-04-01T01:32:06;9.20;;;7.03;;
72785;SDS011;60902;53.876;10.674;2023-04-01T01:33:36;9.15;;;6.75;;
72785;SDS011;60902;53.876;10.674;2023-04-01T01:34:06;9.65;;;6.55;;
72785;SDS011;60902;53.876;10.674;2023-04-01T01:34:27;9.77;;;6.55;;
72785;SDS011;60902;53.876;10.674;2023-04-01T01:34:51;9.80;;;6.70;;